createdAt,value
2024-02-27T00:01:06.205Z,-8.02
2024-02-27T00:03:08.782Z,-8.03
2024-02-27T00:05:11.365Z,-7.98
2024-02-27T00:07:14.385Z,-7.94
2024-02-27T00:09:19.951Z,-7.93
2024-02-27T00:11:23.140Z,-7.94
2024-02-27T00:13:25.810Z,-7.98
2024-02-27T00:15:28.369Z,-7.97
2024-02-27T00:17:30.973Z,-7.96
2024-02-27T00:19:33.783Z,-7.96
2024-02-27T00:21:36.618Z,-7.97
2024-02-27T00:23:39.306Z,-7.96
2024-02-27T00:25:41.919Z,-7.97
2024-02-27T00:27:44.435Z,-7.97
2024-02-27T00:29:47.069Z,-7.98
2024-02-27T00:31:49.616Z,-7.96
2024-02-27T00:33:52.500Z,-7.91
2024-02-27T00:35:55.214Z,-7.87
2024-02-27T00:37:57.844Z,-7.85
2024-02-27T00:40:00.725Z,-7.85
2024-02-27T00:42:05.069Z,-7.89
2024-02-27T00:44:08.735Z,-7.78
2024-02-27T00:46:11.329Z,-7.79
2024-02-27T00:48:14.149Z,-7.79
2024-02-27T00:50:16.960Z,-7.79
2024-02-27T00:52:19.556Z,-7.78
2024-02-27T00:54:22.110Z,-7.78
2024-02-27T00:56:24.851Z,-7.84
2024-02-27T00:58:28.156Z,-7.81
2024-02-27T01:00:30.699Z,-7.80
2024-02-27T01:02:33.317Z,-7.81
2024-02-27T01:04:35.897Z,-7.80
2024-02-27T01:06:38.548Z,-7.83
2024-02-27T01:08:41.327Z,-7.80
2024-02-27T01:10:43.938Z,-7.81
2024-02-27T01:12:47.053Z,-7.86
2024-02-27T01:14:49.661Z,-7.87
2024-02-27T01:16:52.180Z,-7.89
2024-02-27T01:18:54.873Z,-7.88
2024-02-27T01:20:57.501Z,-7.92
2024-02-27T01:23:00.115Z,-7.88
2024-02-27T01:25:03.294Z,-7.92
2024-02-27T01:27:07.302Z,-7.89
2024-02-27T01:29:09.976Z,-7.87
2024-02-27T01:31:12.568Z,-7.89
2024-02-27T01:33:15.283Z,-7.92
2024-02-27T01:35:19.998Z,-7.93
2024-02-27T01:37:22.613Z,-7.94
2024-02-27T01:39:27.405Z,-7.96
2024-02-27T01:41:30.398Z,-8.00
2024-02-27T01:43:33.090Z,-8.08
2024-02-27T01:45:36.184Z,-8.08
2024-02-27T01:47:38.900Z,-8.08
2024-02-27T01:49:43.032Z,-8.09
2024-02-27T01:51:48.415Z,-8.08
2024-02-27T01:53:56.109Z,-8.02
2024-02-27T01:56:00.441Z,-8.06
2024-02-27T01:58:03.121Z,-8.04
2024-02-27T02:00:10.985Z,-8.05
2024-02-27T02:02:15.400Z,-8.06
2024-02-27T02:04:18.720Z,-8.04
2024-02-27T02:06:21.601Z,-8.04
2024-02-27T02:08:24.183Z,-8.04
2024-02-27T02:10:26.875Z,-8.03
2024-02-27T02:12:29.779Z,-8.00
2024-02-27T02:14:32.561Z,-8.08
2024-02-27T02:16:35.295Z,-8.01
2024-02-27T02:18:38.316Z,-8.00
2024-02-27T02:20:41.024Z,-8.00
2024-02-27T02:22:43.773Z,-7.97
2024-02-27T02:24:47.253Z,-7.95
2024-02-27T02:26:50.638Z,-7.95
2024-02-27T02:28:53.265Z,-7.92
2024-02-27T02:30:56.175Z,-7.96
2024-02-27T02:32:58.920Z,-7.88
2024-02-27T02:35:01.577Z,-7.87
2024-02-27T02:37:05.861Z,-7.90
2024-02-27T02:39:08.394Z,-7.86
2024-02-27T02:41:10.947Z,-7.85
2024-02-27T02:43:13.554Z,-7.83
2024-02-27T02:45:16.514Z,-7.86
2024-02-27T02:47:19.226Z,-7.91
2024-02-27T02:49:22.086Z,-7.90
2024-02-27T02:51:25.140Z,-7.89
2024-02-27T02:53:27.819Z,-7.86
2024-02-27T02:55:30.472Z,-7.88
2024-02-27T02:57:34.081Z,-7.89
2024-02-27T02:59:36.730Z,-7.94
2024-02-27T03:01:39.272Z,-7.91
2024-02-27T03:03:41.961Z,-7.91
2024-02-27T03:05:44.753Z,-7.92
2024-02-27T03:07:47.519Z,-7.91
2024-02-27T03:09:50.058Z,-7.91
2024-02-27T03:11:52.703Z,-7.90
2024-02-27T03:13:55.221Z,-7.90
2024-02-27T03:15:58.162Z,-7.89
2024-02-27T03:18:00.895Z,-7.90
2024-02-27T03:20:06.937Z,-7.92
2024-02-27T03:22:10.696Z,-7.95
2024-02-27T03:24:13.366Z,-7.96
2024-02-27T03:26:17.769Z,-7.96
2024-02-27T03:28:20.365Z,-7.94
2024-02-27T03:30:22.958Z,-7.94
2024-02-27T03:32:25.622Z,-7.94
2024-02-27T03:34:28.487Z,-7.96
2024-02-27T03:36:31.423Z,-7.97
2024-02-27T03:38:34.838Z,-7.96
2024-02-27T03:40:37.649Z,-7.97
2024-02-27T03:42:40.851Z,-8.00
2024-02-27T03:44:49.147Z,-8.03
2024-02-27T03:46:52.079Z,-8.04
2024-02-27T03:48:54.914Z,-8.04
2024-02-27T03:50:57.566Z,-8.05
2024-02-27T03:53:00.157Z,-8.03
2024-02-27T03:55:02.707Z,-8.03
2024-02-27T03:57:06.986Z,-8.01
2024-02-27T03:59:12.054Z,-7.98
2024-02-27T04:01:18.608Z,-8.00
2024-02-27T04:03:21.202Z,-8.02
2024-02-27T04:05:23.840Z,-7.96
2024-02-27T04:07:27.148Z,-7.93
2024-02-27T04:09:30.440Z,-7.89
2024-02-27T04:11:33.066Z,-7.87
2024-02-27T04:13:36.513Z,-7.83
2024-02-27T04:15:40.219Z,-7.83
2024-02-27T04:17:42.843Z,-7.83
2024-02-27T04:19:45.501Z,-7.83
2024-02-27T04:21:48.266Z,-7.83
2024-02-27T04:23:50.930Z,-7.82
2024-02-27T04:25:53.509Z,-7.79
2024-02-27T04:27:56.220Z,-7.76
2024-02-27T04:29:58.827Z,-7.76
2024-02-27T04:32:01.389Z,-7.79
2024-02-27T04:34:04.852Z,-7.79
2024-02-27T04:36:10.599Z,-7.74
2024-02-27T04:38:13.208Z,-7.73
2024-02-27T04:40:15.833Z,-7.73
2024-02-27T04:42:18.404Z,-7.74
2024-02-27T04:44:21.460Z,-7.68
2024-02-27T04:46:25.194Z,-7.65
2024-02-27T04:48:27.883Z,-7.59
2024-02-27T04:50:30.591Z,-7.55
2024-02-27T04:52:33.341Z,-7.49
2024-02-27T04:54:38.698Z,-7.56
2024-02-27T04:56:44.149Z,-7.44
2024-02-27T04:58:46.699Z,-7.47
2024-02-27T05:00:49.523Z,-7.33
2024-02-27T05:02:52.210Z,-7.32
2024-02-27T05:04:54.806Z,-7.24
2024-02-27T05:06:57.464Z,-7.18
2024-02-27T05:09:00.251Z,-7.14
2024-02-27T05:11:03.890Z,-7.19
2024-02-27T05:13:06.579Z,-7.09
2024-02-27T05:15:09.512Z,-7.00
2024-02-27T05:17:12.371Z,-6.95
2024-02-27T05:19:15.157Z,-6.91
2024-02-27T05:21:21.385Z,-6.91
2024-02-27T05:23:24.112Z,-6.87
2024-02-27T05:25:26.657Z,-6.82
2024-02-27T05:27:29.318Z,-6.84
2024-02-27T05:29:34.260Z,-6.79
2024-02-27T05:31:37.130Z,-6.76
2024-02-27T05:33:39.862Z,-6.68
2024-02-27T05:35:47.556Z,-6.63
2024-02-27T05:37:50.488Z,-6.55
2024-02-27T05:39:53.193Z,-6.50
2024-02-27T05:41:55.944Z,-6.44
2024-02-27T05:43:59.884Z,-6.38
2024-02-27T05:46:02.376Z,-6.27
2024-02-27T05:48:05.557Z,-6.16
2024-02-27T05:50:08.806Z,-6.09
2024-02-27T05:52:11.317Z,-6.06
2024-02-27T05:54:13.881Z,-6.00
2024-02-27T05:56:18.034Z,-5.89
2024-02-27T05:58:21.517Z,-5.86
2024-02-27T06:00:24.469Z,-5.85
2024-02-27T06:02:27.137Z,-5.75
2024-02-27T06:04:29.767Z,-5.68
2024-02-27T06:06:32.347Z,-5.63
2024-02-27T06:08:35.229Z,-5.63
2024-02-27T06:10:38.381Z,-5.58
2024-02-27T06:12:41.085Z,-5.58
2024-02-27T06:14:43.786Z,-5.49
2024-02-27T06:16:46.386Z,-5.40
2024-02-27T06:18:49.522Z,-5.31
2024-02-27T06:21:11.090Z,-5.24
2024-02-27T06:23:13.718Z,-5.15
2024-02-27T06:25:16.473Z,-5.11
2024-02-27T06:27:19.180Z,-5.04
2024-02-27T06:29:21.927Z,-4.98
2024-02-27T06:31:24.501Z,-4.89
2024-02-27T06:33:27.162Z,-4.89
2024-02-27T06:35:30.013Z,-4.84
2024-02-27T06:37:32.688Z,-4.81
2024-02-27T06:39:35.459Z,-4.71
2024-02-27T06:41:38.088Z,-4.64
2024-02-27T06:43:40.600Z,-4.54
2024-02-27T06:45:43.239Z,-4.47
2024-02-27T06:47:45.879Z,-4.53
2024-02-27T06:49:48.793Z,-4.40
2024-02-27T06:51:51.835Z,-4.30
2024-02-27T06:53:54.411Z,-4.23
2024-02-27T06:55:57.103Z,-4.15
2024-02-27T06:57:59.640Z,-4.13
2024-02-27T07:00:02.568Z,-4.14
2024-02-27T07:02:08.225Z,-4.09
2024-02-27T07:04:10.810Z,-4.06
2024-02-27T07:06:13.628Z,-3.98
2024-02-27T07:08:16.359Z,-3.82
2024-02-27T07:10:18.964Z,-3.68
2024-02-27T07:12:21.717Z,-3.58
2024-02-27T07:14:24.386Z,-3.54
2024-02-27T07:16:27.049Z,-3.52
2024-02-27T07:18:29.827Z,-3.52
2024-02-27T07:20:32.553Z,-3.51
2024-02-27T07:22:35.105Z,-3.45
2024-02-27T07:24:37.873Z,-3.43
2024-02-27T07:26:40.419Z,-3.45
2024-02-27T07:28:44.936Z,-3.41
2024-02-27T07:30:49.791Z,-3.41
2024-02-27T07:32:52.716Z,-3.38
2024-02-27T07:34:55.366Z,-3.43
2024-02-27T07:36:57.962Z,-3.33
2024-02-27T07:39:00.606Z,-3.34
2024-02-27T07:41:04.194Z,-3.40
2024-02-27T07:43:06.860Z,-3.38
2024-02-27T07:45:09.996Z,-3.45
2024-02-27T07:47:12.572Z,-3.44
2024-02-27T07:49:15.456Z,-3.45
2024-02-27T07:51:34.368Z,-3.43
2024-02-27T07:53:36.969Z,-3.28
2024-02-27T07:55:40.469Z,-3.23
2024-02-27T07:57:42.976Z,-3.20
2024-02-27T07:59:45.591Z,-3.11
2024-02-27T08:01:48.205Z,-3.04
2024-02-27T08:03:50.781Z,-3.07
2024-02-27T08:05:53.524Z,-2.99
2024-02-27T08:07:56.192Z,-2.85
2024-02-27T08:09:58.800Z,-2.82
2024-02-27T08:12:01.695Z,-2.91
2024-02-27T08:14:05.299Z,-2.91
2024-02-27T08:16:08.130Z,-2.87
2024-02-27T08:18:10.930Z,-2.84
2024-02-27T08:20:13.705Z,-2.90
2024-02-27T08:22:17.878Z,-2.95
2024-02-27T08:24:20.675Z,-2.92
2024-02-27T08:26:23.593Z,-2.90
2024-02-27T08:28:26.298Z,-2.81
2024-02-27T08:30:28.904Z,-2.71
2024-02-27T08:32:32.902Z,-2.69
2024-02-27T08:34:35.741Z,-2.52
2024-02-27T08:36:38.613Z,-2.44
2024-02-27T08:38:45.466Z,-2.37
2024-02-27T08:40:47.993Z,-2.33
2024-02-27T08:42:51.776Z,-2.28
2024-02-27T08:44:54.609Z,-2.15
2024-02-27T08:47:00.338Z,-2.25
2024-02-27T08:49:04.388Z,-2.22
2024-02-27T08:51:07.025Z,-2.09
2024-02-27T08:53:10.008Z,-2.08
2024-02-27T08:55:12.622Z,-2.20
2024-02-27T08:57:15.407Z,-2.30
2024-02-27T08:59:19.480Z,-2.37
2024-02-27T09:01:22.121Z,-2.37
2024-02-27T09:03:24.726Z,-2.24
2024-02-27T09:05:27.434Z,-2.25
2024-02-27T09:07:30.052Z,-2.35
2024-02-27T09:09:32.798Z,-2.48
2024-02-27T09:11:35.821Z,-2.39
2024-02-27T09:13:38.460Z,-2.46
2024-02-27T09:15:41.136Z,-2.43
2024-02-27T09:17:43.949Z,-2.48
2024-02-27T09:19:48.405Z,-2.40
2024-02-27T09:21:51.124Z,-2.35
2024-02-27T09:23:55.910Z,-2.25
2024-02-27T09:25:58.553Z,-2.21
2024-02-27T09:28:01.460Z,-2.20
2024-02-27T09:30:04.464Z,-2.06
2024-02-27T09:32:07.600Z,-1.97
2024-02-27T10:10:59.393Z,-1.88
2024-02-27T10:13:02.249Z,-1.91
2024-02-27T10:15:06.291Z,-1.82
2024-02-27T10:17:10.589Z,-1.76
2024-02-27T10:19:13.490Z,-1.68
2024-02-27T10:21:18.560Z,-1.65
2024-02-27T10:23:21.358Z,-1.75
2024-02-27T10:25:29.228Z,-1.82
2024-02-27T10:27:37.378Z,-1.83
2024-02-27T10:29:42.845Z,-1.76
2024-02-27T10:31:46.138Z,-1.72
2024-02-27T10:33:49.285Z,-1.68
2024-02-27T10:35:53.701Z,-1.73
2024-02-27T10:37:57.939Z,-1.76
2024-02-27T10:40:01.696Z,-1.68
2024-02-27T10:42:05.516Z,-1.71
2024-02-27T10:44:14.312Z,-1.67
2024-02-27T10:46:17.880Z,-1.68
2024-02-27T10:48:26.911Z,-1.71
2024-02-27T10:50:37.383Z,-1.74
2024-02-27T10:52:40.730Z,-1.75
2024-02-27T10:54:46.764Z,-1.85
2024-02-27T10:56:50.588Z,-1.97
2024-02-27T10:58:54.502Z,-2.02
2024-02-27T11:00:57.906Z,-2.09
2024-02-27T11:03:06.540Z,-2.21
2024-02-27T11:05:10.351Z,-2.22
2024-02-27T11:07:15.334Z,-2.16
2024-02-27T11:09:25.842Z,-2.01
2024-02-27T11:11:29.333Z,-1.97
2024-02-27T11:13:34.173Z,-1.92
2024-02-27T11:15:40.712Z,-1.93
2024-02-27T11:17:47.170Z,-1.95
2024-02-27T11:19:51.733Z,-1.94
2024-02-27T11:21:55.775Z,-1.87
2024-02-27T11:23:59.009Z,-1.78
2024-02-27T11:26:03.061Z,-1.68
2024-02-27T11:28:06.763Z,-1.69
2024-02-27T11:30:10.844Z,-1.67
2024-02-27T11:32:14.258Z,-1.72
2024-02-27T11:34:25.481Z,-1.74
2024-02-27T11:36:28.510Z,-1.72
2024-02-27T11:38:38.793Z,-1.55
2024-02-27T11:40:49.723Z,-1.43
2024-02-27T11:42:52.719Z,-1.40
2024-02-27T11:45:08.019Z,-1.35
2024-02-27T11:47:34.856Z,-1.28
2024-02-27T11:49:40.942Z,-1.34
2024-02-27T11:51:44.182Z,-1.29
2024-02-27T11:53:47.038Z,-1.41
2024-02-27T11:55:55.379Z,-1.38
2024-02-27T11:58:03.686Z,-1.28
2024-02-27T12:00:11.927Z,-1.24
2024-02-27T12:02:19.241Z,-1.39
2024-02-27T12:04:22.071Z,-1.30
2024-02-27T12:06:24.815Z,-1.21
2024-02-27T12:08:27.622Z,-1.32
2024-02-27T12:10:31.098Z,-1.34
2024-02-27T12:12:35.812Z,-1.37
2024-02-27T12:14:38.746Z,-1.39
2024-02-27T12:16:43.721Z,-1.50
2024-02-27T12:18:48.954Z,-1.43
2024-02-27T12:20:53.076Z,-1.36
2024-02-27T12:22:55.926Z,-1.31
2024-02-27T12:24:59.724Z,-1.25
2024-02-27T12:27:02.544Z,-1.15
2024-02-27T12:29:05.310Z,-1.14
2024-02-27T12:31:08.490Z,-1.13
2024-02-27T12:33:12.177Z,-0.99
2024-02-27T12:35:16.406Z,-1.01
2024-02-27T12:37:19.685Z,-1.16
2024-02-27T12:39:24.478Z,-1.10
2024-02-27T12:41:27.928Z,-1.01
2024-02-27T12:43:30.721Z,-0.86
2024-02-27T12:45:33.579Z,-0.82
2024-02-27T12:47:37.275Z,-0.72
2024-02-27T12:49:40.320Z,-0.85
2024-02-27T12:51:43.234Z,-1.04
2024-02-27T12:53:46.004Z,-1.27
2024-02-27T12:55:49.050Z,-1.53
2024-02-27T12:57:55.719Z,-1.70
2024-02-27T12:59:58.494Z,-1.96
2024-02-27T13:02:01.173Z,-2.20
2024-02-27T13:04:04.110Z,-2.36
2024-02-27T13:06:07.113Z,-2.50
2024-02-27T13:08:11.159Z,-2.64
2024-02-27T13:10:14.620Z,-2.69
2024-02-27T13:12:17.530Z,-2.78
2024-02-27T13:14:20.276Z,-2.95
2024-02-27T13:16:24.615Z,-3.02
2024-02-27T13:18:28.318Z,-3.09
2024-02-27T13:20:31.090Z,-3.15
2024-02-27T13:22:33.786Z,-3.20
2024-02-27T13:24:36.587Z,-3.17
2024-02-27T13:26:39.327Z,-3.03
2024-02-27T13:28:42.053Z,-2.76
2024-02-27T13:30:45.415Z,-2.67
2024-02-27T13:32:48.705Z,-2.53
2024-02-27T13:34:51.578Z,-2.43
2024-02-27T13:36:54.517Z,-2.42
2024-02-27T13:38:57.355Z,-2.61
2024-02-27T13:41:00.217Z,-2.91
2024-02-27T13:43:04.083Z,-3.02
2024-02-27T13:45:07.319Z,-3.21
2024-02-27T13:47:12.098Z,-3.32
2024-02-27T13:49:24.121Z,-3.45
2024-02-27T13:51:27.025Z,-3.54
2024-02-27T13:53:30.493Z,-3.62
2024-02-27T13:55:33.305Z,-3.61
2024-02-27T13:57:36.077Z,-3.67
2024-02-27T13:59:39.008Z,-3.74
2024-02-27T14:01:41.819Z,-3.77
2024-02-27T14:03:45.194Z,-3.84
2024-02-27T14:05:48.257Z,-3.96
2024-02-27T14:07:52.593Z,-4.07
2024-02-27T14:09:55.345Z,-4.14
2024-02-27T14:11:58.225Z,-4.30
2024-02-27T14:14:07.376Z,-4.35
2024-02-27T14:16:16.625Z,-4.49
2024-02-27T14:18:19.607Z,-4.52
2024-02-27T14:20:22.882Z,-4.59
2024-02-27T14:22:25.773Z,-4.58
2024-02-27T14:24:28.633Z,-4.63
2024-02-27T14:26:31.490Z,-4.68
2024-02-27T14:28:34.212Z,-4.72
2024-02-27T14:30:37.003Z,-4.69
2024-02-27T14:32:40.440Z,-4.77
2024-02-27T14:34:43.415Z,-4.80
2024-02-27T14:36:46.596Z,-4.88
2024-02-27T14:38:49.501Z,-4.87
2024-02-27T14:40:52.370Z,-4.89
2024-02-27T14:42:55.210Z,-4.94
2024-02-27T14:44:58.078Z,-4.96
2024-02-27T14:47:00.785Z,-4.96
2024-02-27T14:49:05.338Z,-4.96
2024-02-27T14:51:09.823Z,-4.97
2024-02-27T14:53:13.611Z,-5.00
2024-02-27T14:55:16.465Z,-5.06
2024-02-27T14:57:19.194Z,-5.06
2024-02-27T14:59:22.937Z,-5.02
2024-02-27T15:01:33.119Z,-5.08
2024-02-27T15:03:38.701Z,-5.07
2024-02-27T15:05:41.583Z,-5.11
2024-02-27T15:07:44.786Z,-5.10
2024-02-27T15:09:47.775Z,-5.11
2024-02-27T15:11:50.924Z,-5.16
2024-02-27T15:13:53.689Z,-5.18
2024-02-27T15:15:56.985Z,-5.20
2024-02-27T15:17:59.860Z,-5.29
2024-02-27T15:20:02.772Z,-5.29
2024-02-27T15:22:06.746Z,-5.29
2024-02-27T15:24:09.461Z,-5.35
2024-02-27T15:26:12.216Z,-5.41
2024-02-27T15:28:14.944Z,-5.39
2024-02-27T15:30:21.603Z,-5.44
2024-02-27T15:32:31.405Z,-5.46
2024-02-27T15:34:47.191Z,-5.49
2024-02-27T15:36:58.338Z,-5.55
2024-02-27T15:39:09.215Z,-5.60
2024-02-27T15:42:09.283Z,-5.69
2024-02-27T15:44:28.870Z,-5.72
2024-02-27T15:46:33.723Z,-5.72
2024-02-27T15:48:37.484Z,-5.75
2024-02-27T15:50:40.390Z,-5.77
2024-02-27T15:52:43.092Z,-5.83
2024-02-27T15:54:46.377Z,-5.90
2024-02-27T15:56:49.159Z,-5.89
2024-02-27T15:58:52.090Z,-5.92
2024-02-27T16:00:55.498Z,-5.96
2024-02-27T16:03:12.203Z,-5.94
2024-02-27T16:05:21.370Z,-5.97
2024-02-27T16:07:33.405Z,-6.03
2024-02-27T16:09:38.018Z,-6.04
2024-02-27T16:11:40.684Z,-6.07
2024-02-27T16:13:44.931Z,-6.11
2024-02-27T16:15:47.656Z,-6.10
2024-02-27T16:17:50.411Z,-6.10
2024-02-27T16:19:53.627Z,-6.10
2024-02-27T16:22:05.173Z,-6.11
2024-02-27T16:24:09.453Z,-6.12
2024-02-27T16:26:12.385Z,-6.15
2024-02-27T16:28:15.203Z,-6.12
2024-02-27T16:30:18.087Z,-6.20
2024-02-27T16:32:21.014Z,-6.13
2024-02-27T16:34:25.101Z,-6.14
2024-02-27T16:36:28.312Z,-6.12
2024-02-27T16:38:31.206Z,-6.14
2024-02-27T16:40:33.889Z,-6.15
2024-02-27T16:42:36.798Z,-6.16
2024-02-27T16:44:39.644Z,-6.21
2024-02-27T16:46:42.392Z,-6.23
2024-02-27T16:48:45.182Z,-6.26
2024-02-27T16:50:47.880Z,-6.23
2024-02-27T16:52:51.470Z,-6.24
2024-02-27T16:54:54.341Z,-6.28
2024-02-27T16:56:57.076Z,-6.27
2024-02-27T16:59:01.257Z,-6.30
2024-02-27T17:01:06.640Z,-6.29
2024-02-27T17:03:09.492Z,-6.30
2024-02-27T17:05:12.447Z,-6.31
2024-02-27T17:07:15.218Z,-6.33
2024-02-27T17:09:20.220Z,-6.36
2024-02-27T17:11:23.007Z,-6.39
2024-02-27T17:13:25.811Z,-6.43
2024-02-27T17:15:28.636Z,-6.44
2024-02-27T17:17:31.440Z,-6.43
2024-02-27T17:19:34.655Z,-6.45
2024-02-27T17:21:37.414Z,-6.49
2024-02-27T17:23:40.155Z,-6.54
2024-02-27T17:25:45.033Z,-6.53
2024-02-27T17:27:47.996Z,-6.55
2024-02-27T17:29:52.011Z,-6.61
2024-02-27T17:31:54.722Z,-6.60
2024-02-27T17:33:57.631Z,-6.60
2024-02-27T17:36:01.274Z,-6.65
2024-02-27T17:38:04.637Z,-6.66
2024-02-27T17:40:07.867Z,-6.72
2024-02-27T17:42:10.820Z,-6.70
2024-02-27T17:44:13.564Z,-6.71
2024-02-27T17:46:16.326Z,-6.75
2024-02-27T17:48:19.321Z,-6.75
2024-02-27T17:50:22.176Z,-6.75
2024-02-27T17:52:25.312Z,-6.76
2024-02-27T17:54:28.183Z,-6.81
2024-02-27T17:56:31.016Z,-6.83
2024-02-27T17:58:35.958Z,-6.89
2024-02-27T18:00:39.271Z,-6.92
2024-02-27T18:02:42.137Z,-6.99
2024-02-27T18:04:44.928Z,-7.00
2024-02-27T18:06:48.074Z,-7.03
2024-02-27T18:08:51.010Z,-7.05
2024-02-27T18:10:53.833Z,-7.06
2024-02-27T18:12:56.723Z,-7.09
2024-02-27T18:15:00.563Z,-7.10
2024-02-27T18:17:03.378Z,-7.13
2024-02-27T18:19:06.255Z,-7.15
2024-02-27T18:21:09.253Z,-7.17
2024-02-27T18:23:12.033Z,-7.19
2024-02-27T18:25:14.976Z,-7.20
2024-02-27T18:27:21.720Z,-7.20
2024-02-27T18:29:24.670Z,-7.21
2024-02-27T18:31:27.446Z,-7.19
2024-02-27T18:33:30.377Z,-7.23
2024-02-27T18:35:35.910Z,-7.22
2024-02-27T18:37:38.776Z,-7.21
2024-02-27T18:39:43.856Z,-7.24
2024-02-27T18:41:47.218Z,-7.23
2024-02-27T18:43:50.972Z,-7.25
2024-02-27T18:45:53.773Z,-7.31
2024-02-27T18:47:57.271Z,-7.25
2024-02-27T18:50:03.655Z,-7.24
2024-02-27T18:52:08.072Z,-7.25
2024-02-27T18:54:10.875Z,-7.26
2024-02-27T18:56:13.631Z,-7.27
2024-02-27T18:58:16.521Z,-7.29
2024-02-27T19:00:19.680Z,-7.33
2024-02-27T19:02:22.453Z,-7.35
2024-02-27T19:04:25.246Z,-7.37
2024-02-27T19:06:28.152Z,-7.39
2024-02-27T19:08:31.805Z,-7.44
2024-02-27T19:10:36.934Z,-7.45
2024-02-27T19:12:40.120Z,-7.48
2024-02-27T19:14:43.170Z,-7.47
2024-02-27T19:16:45.954Z,-7.49
2024-02-27T19:18:49.693Z,-7.51
2024-02-27T19:20:52.663Z,-7.53
2024-02-27T19:22:55.528Z,-7.53
2024-02-27T19:24:58.727Z,-7.52
2024-02-27T19:27:01.567Z,-7.50
2024-02-27T19:29:04.462Z,-7.53
2024-02-27T19:31:07.961Z,-7.55
2024-02-27T19:33:11.643Z,-7.55
2024-02-27T19:35:14.502Z,-7.57
2024-02-27T19:37:17.960Z,-7.57
2024-02-27T19:39:20.776Z,-7.56
2024-02-27T19:41:23.549Z,-7.56
2024-02-27T19:43:27.064Z,-7.58
2024-02-27T19:45:30.008Z,-7.57
2024-02-27T19:47:32.926Z,-7.56
2024-02-27T19:49:35.949Z,-7.53
2024-02-27T19:51:38.741Z,-7.51
2024-02-27T19:53:41.819Z,-7.56
2024-02-27T19:55:45.738Z,-7.55
2024-02-27T19:57:48.573Z,-7.57
2024-02-27T19:59:51.389Z,-7.59
2024-02-27T20:01:55.346Z,-7.59
2024-02-27T20:03:58.140Z,-7.61
2024-02-27T20:06:00.908Z,-7.62
2024-02-27T20:08:03.895Z,-7.65
2024-02-27T20:10:08.331Z,-7.70
2024-02-27T20:12:11.541Z,-7.66
2024-02-27T20:14:15.705Z,-7.66
2024-02-27T20:16:18.583Z,-7.66
2024-02-27T20:18:21.470Z,-7.67
2024-02-27T20:20:24.349Z,-7.66
2024-02-27T20:22:28.455Z,-7.68
2024-02-27T20:24:33.541Z,-7.70
2024-02-27T20:26:44.223Z,-7.72
2024-02-27T20:28:53.256Z,-7.71
2024-02-27T20:30:56.331Z,-7.71
2024-02-27T20:33:00.415Z,-7.71
2024-02-27T20:35:03.883Z,-7.71
2024-02-27T20:37:07.588Z,-7.73
2024-02-27T20:39:10.405Z,-7.75
2024-02-27T20:41:13.767Z,-7.76
2024-02-27T20:43:16.571Z,-7.75
2024-02-27T20:45:21.968Z,-7.73
2024-02-27T20:47:24.800Z,-7.74
2024-02-27T20:49:27.532Z,-7.74
2024-02-27T20:51:31.200Z,-7.74
2024-02-27T20:53:34.528Z,-7.72
2024-02-27T20:55:37.268Z,-7.70
2024-02-27T20:57:40.073Z,-7.69
2024-02-27T20:59:42.832Z,-7.68
2024-02-27T21:01:45.699Z,-7.65
2024-02-27T21:03:48.481Z,-7.62
2024-02-27T21:05:51.334Z,-7.62
2024-02-27T21:07:56.254Z,-7.62
2024-02-27T21:10:00.502Z,-7.62
2024-02-27T21:12:03.927Z,-7.63
2024-02-27T21:14:06.664Z,-7.63
2024-02-27T21:16:09.808Z,-7.68
2024-02-27T21:18:13.152Z,-7.68
2024-02-27T21:20:16.133Z,-7.67
2024-02-27T21:22:18.820Z,-7.69
2024-02-27T21:24:21.517Z,-7.71
2024-02-27T21:26:25.802Z,-7.73
2024-02-27T21:28:28.463Z,-7.75
2024-02-27T21:30:31.681Z,-7.74
2024-02-27T21:32:34.584Z,-7.75
2024-02-27T21:34:39.802Z,-7.78
2024-02-27T21:36:42.838Z,-7.80
2024-02-27T21:38:45.585Z,-7.81
2024-02-27T21:40:48.379Z,-7.80
2024-02-27T21:42:51.173Z,-7.81
2024-02-27T21:44:53.914Z,-7.85
2024-02-27T21:46:56.652Z,-7.89
2024-02-27T21:48:59.414Z,-7.90
2024-02-27T21:51:02.262Z,-7.91
2024-02-27T21:53:05.965Z,-7.93
2024-02-27T21:55:08.892Z,-7.93
2024-02-27T21:57:11.638Z,-7.94
2024-02-27T21:59:15.616Z,-7.95
2024-02-27T22:01:18.365Z,-7.94
2024-02-27T22:03:21.385Z,-7.91
2024-02-27T22:05:24.295Z,-7.92
2024-02-27T22:07:27.201Z,-7.88
2024-02-27T22:09:29.878Z,-7.87
2024-02-27T22:11:34.069Z,-7.86
2024-02-27T22:13:38.626Z,-7.84
2024-02-27T22:15:42.151Z,-7.83
2024-02-27T22:17:44.966Z,-7.82
2024-02-27T22:19:47.842Z,-7.83
2024-02-27T22:21:50.729Z,-7.83
2024-02-27T22:23:53.485Z,-7.85
2024-02-27T22:25:56.158Z,-7.87
2024-02-27T22:27:58.922Z,-7.89
2024-02-27T22:30:01.614Z,-7.90
2024-02-27T22:32:04.717Z,-7.89
2024-02-27T22:34:07.453Z,-7.88
2024-02-27T22:36:10.186Z,-7.88
2024-02-27T22:38:12.999Z,-7.90
2024-02-27T22:40:17.332Z,-7.90
2024-02-27T22:42:20.658Z,-7.87
2024-02-27T22:44:23.451Z,-7.83
2024-02-27T22:46:26.176Z,-7.80
2024-02-27T22:48:29.113Z,-7.79
2024-02-27T22:50:31.832Z,-7.78
2024-02-27T22:52:34.539Z,-7.76
2024-02-27T22:54:37.435Z,-7.76
2024-02-27T22:56:40.293Z,-7.79
2024-02-27T22:58:43.018Z,-7.84
2024-02-27T23:00:45.822Z,-7.88
2024-02-27T23:02:49.162Z,-7.90
2024-02-27T23:04:51.910Z,-7.95
2024-02-27T23:06:54.650Z,-7.98
2024-02-27T23:08:57.462Z,-8.04
2024-02-27T23:11:00.159Z,-8.06
2024-02-27T23:13:02.918Z,-8.09
2024-02-27T23:15:06.249Z,-8.08
2024-02-27T23:17:09.008Z,-8.09
2024-02-27T23:19:11.836Z,-8.11
2024-02-27T23:21:14.608Z,-8.15
2024-02-27T23:23:17.324Z,-8.14
2024-02-27T23:25:20.180Z,-8.13
2024-02-27T23:27:24.976Z,-8.14
2024-02-27T23:29:29.211Z,-8.13
2024-02-27T23:31:31.959Z,-8.09
2024-02-27T23:33:34.677Z,-8.11
2024-02-27T23:35:38.439Z,-8.12
2024-02-27T23:37:47.088Z,-8.19
2024-02-27T23:39:49.984Z,-8.13
2024-02-27T23:41:53.018Z,-8.14
2024-02-27T23:43:55.698Z,-8.15
2024-02-27T23:45:58.448Z,-8.18
2024-02-27T23:48:01.278Z,-8.17
2024-02-27T23:50:04.250Z,-8.16
2024-02-27T23:52:07.569Z,-8.16
2024-02-27T23:54:10.450Z,-8.16
2024-02-27T23:56:13.268Z,-8.18
2024-02-27T23:58:17.708Z,-8.21
